Time;durP1;ratioP1;P1;durP2;ratioP2;P2;SDS_P1;SDS_P2;PMS_P1;PMS_P2;Temp;Humidity;BMP_temperature;BMP_pressure;BME280_temperature;BME280_humidity;BME280_pressure;Samples;Min_cycle;Max_cycle;Signal;HPM_P1;HPM_P2
2022/03/05 00:00:05;;;;;;;20.23;13.15;;;3.20;99.90;;;;;;5014878;28;20049;-55
2022/03/05 00:02:31;;;;;;;22.50;12.68;;;3.20;99.90;;;;;;5014412;28;20069;-53
2022/03/05 00:04:57;;;;;;;18.75;12.00;;;3.20;99.90;;;;;;4997071;28;20061;-54
2022/03/05 00:07:22;;;;;;;16.45;11.55;;;3.20;99.90;;;;;;5014257;28;20448;-55
2022/03/05 00:09:48;;;;;;;19.48;11.57;;;3.20;99.90;;;;;;5014903;28;20042;-52
2022/03/05 00:12:13;;;;;;;18.63;13.02;;;3.10;99.90;;;;;;5014102;28;20062;-51
2022/03/05 00:14:39;;;;;;;18.27;12.30;;;3.10;99.90;;;;;;5014708;28;20038;-55
2022/03/05 00:17:05;;;;;;;20.52;12.95;;;3.20;99.90;;;;;;5014418;28;20164;-54
2022/03/05 00:19:30;;;;;;;20.65;12.10;;;3.20;99.90;;;;;;5014510;28;20482;-53
2022/03/05 00:21:59;;;;;;;22.08;13.13;;;3.20;99.90;;;;;;4986127;28;20045;-54
2022/03/05 00:24:25;;;;;;;19.50;12.90;;;3.10;99.90;;;;;;4994941;28;20034;-53
2022/03/05 00:26:50;;;;;;;21.02;12.70;;;3.10;99.90;;;;;;4978449;28;20038;-56
2022/03/05 00:29:16;;;;;;;20.52;11.52;;;3.10;99.90;;;;;;5005388;28;20121;-56
2022/03/05 00:31:41;;;;;;;20.13;11.57;;;3.10;99.90;;;;;;5018149;28;20066;-57
2022/03/05 00:34:07;;;;;;;19.02;12.27;;;3.00;99.90;;;;;;5014212;28;20105;-55
2022/03/05 00:36:33;;;;;;;22.25;13.70;;;3.00;99.90;;;;;;5014177;28;20045;-52
2022/03/05 00:38:58;;;;;;;20.20;13.02;;;3.00;99.90;;;;;;5014468;28;20042;-56
2022/03/05 00:41:24;;;;;;;22.75;13.13;;;2.90;99.90;;;;;;5014131;28;20034;-54
2022/03/05 00:43:49;;;;;;;27.63;16.02;;;3.00;99.90;;;;;;5029399;28;20045;-56
2022/03/05 00:46:15;;;;;;;20.48;13.10;;;3.00;99.90;;;;;;5026140;28;20129;-55
2022/03/05 00:48:40;;;;;;;21.50;12.30;;;2.90;99.90;;;;;;5013541;28;20042;-55
2022/03/05 00:51:06;;;;;;;18.05;11.38;;;2.90;99.90;;;;;;5013550;28;20068;-55
2022/03/05 00:53:31;;;;;;;17.00;10.65;;;2.90;99.90;;;;;;5011974;28;20053;-56
2022/03/05 00:55:57;;;;;;;15.07;10.60;;;2.80;99.90;;;;;;5004066;28;20494;-56
2022/03/05 00:58:23;;;;;;;15.50;11.38;;;2.80;99.90;;;;;;5012863;28;20101;-55
2022/03/05 01:00:49;;;;;;;17.05;10.30;;;2.70;99.90;;;;;;5011680;28;20120;-55
2022/03/05 01:03:14;;;;;;;15.70;11.60;;;2.70;99.90;;;;;;5012184;28;20034;-54
2022/03/05 01:05:40;;;;;;;16.63;11.07;;;2.60;99.90;;;;;;5012845;28;20407;-54
2022/03/05 01:08:05;;;;;;;17.52;11.65;;;2.60;99.90;;;;;;5011775;28;20096;-52
2022/03/05 01:10:31;;;;;;;16.23;10.07;;;2.50;99.90;;;;;;5012748;28;20597;-54
2022/03/05 01:12:57;;;;;;;17.58;10.52;;;2.50;99.90;;;;;;4995019;28;20049;-54
2022/03/05 01:15:22;;;;;;;18.45;10.23;;;2.50;99.90;;;;;;5013109;28;20409;-56
2022/03/05 01:17:48;;;;;;;47.58;25.25;;;2.50;99.90;;;;;;5013301;28;20355;-55
2022/03/05 01:20:14;;;;;;;29.17;17.35;;;2.50;99.90;;;;;;5013694;28;20434;-52
2022/03/05 01:22:39;;;;;;;21.05;12.40;;;2.50;99.90;;;;;;5013799;28;20041;-52
2022/03/05 01:25:05;;;;;;;16.20;10.80;;;2.50;99.90;;;;;;5015249;28;20385;-52
2022/03/05 01:27:30;;;;;;;16.88;10.40;;;2.50;99.90;;;;;;5015821;28;20572;-51
2022/03/05 01:30:03;;;;;;;17.15;11.32;;;2.50;99.90;;;;;;5063157;28;20379;-55
2022/03/05 01:32:48;;;;;;;15.68;9.95;;;2.40;99.90;;;;;;5041656;28;20059;-52
2022/03/05 01:35:34;;;;;;;17.13;9.82;;;2.50;99.90;;;;;;5040173;28;20435;-54
2022/03/05 01:38:18;;;;;;;12.90;9.35;;;2.50;99.90;;;;;;5036520;28;20409;-55
2022/03/05 01:41:03;;;;;;;12.65;9.20;;;2.40;99.90;;;;;;5039097;28;20493;-49
2022/03/05 01:43:51;;;;;;;13.38;8.95;;;2.30;99.90;;;;;;5039604;28;20078;-51
2022/03/05 01:46:37;;;;;;;16.85;9.70;;;2.40;99.90;;;;;;5039068;28;20412;-48
2022/03/05 01:49:21;;;;;;;13.68;9.90;;;2.30;99.90;;;;;;5038367;28;20064;-51
2022/03/05 01:52:06;;;;;;;17.25;9.93;;;2.30;99.90;;;;;;5040700;28;20076;-54
2022/03/05 01:54:50;;;;;;;12.82;9.35;;;2.30;99.90;;;;;;5039649;28;20056;-53
2022/03/05 01:57:34;;;;;;;14.65;9.38;;;2.30;99.90;;;;;;5038495;28;20833;-52
2022/03/05 02:00:18;;;;;;;16.52;10.15;;;2.40;99.90;;;;;;5037956;28;20107;-52
2022/03/05 02:03:03;;;;;;;14.05;9.82;;;2.40;99.90;;;;;;5038690;28;20037;-50
2022/03/05 02:05:47;;;;;;;16.92;10.55;;;2.40;99.90;;;;;;5039774;28;20096;-54
2022/03/05 02:08:31;;;;;;;17.77;10.45;;;2.40;99.90;;;;;;5038167;28;20032;-50
2022/03/05 02:11:15;;;;;;;16.17;10.60;;;2.30;99.90;;;;;;5037770;28;20037;-53
2022/03/05 02:13:59;;;;;;;15.27;10.90;;;2.30;99.90;;;;;;5046148;28;20447;-52
2022/03/05 02:16:44;;;;;;;16.45;10.77;;;2.30;99.90;;;;;;5041573;28;20401;-52
2022/03/05 02:19:29;;;;;;;17.00;9.98;;;2.30;99.90;;;;;;5039436;28;20075;-54
2022/03/05 02:22:13;;;;;;;15.93;10.35;;;2.20;99.90;;;;;;5043416;28;20487;-53
2022/03/05 02:25:02;;;;;;;15.57;9.75;;;2.20;99.90;;;;;;5046676;28;20133;-51
2022/03/05 02:27:46;;;;;;;14.23;9.35;;;2.20;99.90;;;;;;5029997;28;20033;-53
2022/03/05 02:30:30;;;;;;;13.27;9.77;;;2.20;99.90;;;;;;5048918;28;20068;-51
2022/03/05 02:33:14;;;;;;;15.07;9.43;;;2.20;99.90;;;;;;5032856;28;20451;-52
2022/03/05 02:35:59;;;;;;;14.02;9.70;;;2.10;99.90;;;;;;5048877;28;20117;-54
2022/03/05 02:38:43;;;;;;;15.07;9.98;;;2.00;99.90;;;;;;5040577;28;20040;-54
2022/03/05 02:41:27;;;;;;;14.02;9.90;;;2.00;99.90;;;;;;5030444;28;20405;-52
2022/03/05 02:44:11;;;;;;;14.98;10.52;;;2.00;99.90;;;;;;5029669;28;20117;-51
2022/03/05 02:46:58;;;;;;;13.30;9.52;;;2.00;99.90;;;;;;5035297;28;20041;-54
2022/03/05 02:49:42;;;;;;;12.75;9.68;;;2.00;99.90;;;;;;5015348;28;20481;-52
2022/03/05 02:52:26;;;;;;;14.75;10.27;;;1.90;99.90;;;;;;5015684;28;20988;-52
2022/03/05 02:55:10;;;;;;;17.08;9.98;;;1.90;99.90;;;;;;5014556;28;20398;-51
2022/03/05 02:57:54;;;;;;;15.98;11.45;;;1.90;99.90;;;;;;5018820;28;20508;-53
2022/03/05 03:00:39;;;;;;;15.82;10.30;;;1.90;99.90;;;;;;5033185;28;20045;-51
2022/03/05 03:03:23;;;;;;;19.85;10.38;;;1.90;99.90;;;;;;5034591;28;20504;-51
2022/03/05 03:06:07;;;;;;;14.10;9.52;;;1.80;99.90;;;;;;5026470;28;20049;-50
2022/03/05 03:08:52;;;;;;;15.82;11.07;;;1.80;99.90;;;;;;5014087;28;20113;-55
2022/03/05 03:11:36;;;;;;;13.20;9.52;;;1.70;99.90;;;;;;5026805;28;20083;-55
2022/03/05 03:14:20;;;;;;;16.17;9.50;;;1.70;99.90;;;;;;5033660;28;20040;-51
2022/03/05 03:17:04;;;;;;;21.40;11.67;;;1.70;99.90;;;;;;5034834;28;20117;-52
2022/03/05 03:19:49;;;;;;;16.02;10.25;;;1.70;99.90;;;;;;5034646;28;20111;-52
2022/03/05 03:22:33;;;;;;;16.75;10.50;;;1.70;99.90;;;;;;5033671;28;20127;-52
2022/03/05 03:25:17;;;;;;;12.30;9.27;;;1.70;99.90;;;;;;5031476;28;20087;-55
2022/03/05 03:28:01;;;;;;;13.15;9.55;;;1.70;99.90;;;;;;5014655;28;20405;-55
2022/03/05 03:30:46;;;;;;;14.38;10.55;;;1.80;99.90;;;;;;5031245;28;20032;-55
2022/03/05 03:33:30;;;;;;;15.57;9.82;;;1.70;99.90;;;;;;5034524;28;20430;-54
2022/03/05 03:36:15;;;;;;;15.32;9.95;;;1.70;99.90;;;;;;5032907;28;20113;-54
2022/03/05 03:38:59;;;;;;;14.73;10.38;;;1.70;99.90;;;;;;5034645;28;20087;-57
2022/03/05 03:41:43;;;;;;;13.00;8.82;;;1.70;99.90;;;;;;5027981;28;20044;-56
2022/03/05 03:44:27;;;;;;;13.80;9.13;;;1.70;99.90;;;;;;5034065;28;20583;-55
2022/03/05 03:47:11;;;;;;;13.82;9.75;;;1.70;99.90;;;;;;5033534;28;20119;-57
2022/03/05 03:49:55;;;;;;;13.43;10.10;;;1.70;99.90;;;;;;5033228;28;20481;-54
2022/03/05 03:52:39;;;;;;;14.68;10.65;;;1.70;99.90;;;;;;5013330;28;20026;-52
2022/03/05 03:55:24;;;;;;;14.35;8.98;;;1.70;99.90;;;;;;5014880;28;20061;-51
2022/03/05 03:58:08;;;;;;;13.27;9.63;;;1.80;99.90;;;;;;5019713;28;20543;-53
2022/03/05 04:00:52;;;;;;;15.02;8.85;;;1.70;99.90;;;;;;5033763;28;20543;-52
2022/03/05 04:03:36;;;;;;;12.80;9.45;;;1.60;99.90;;;;;;5026147;28;20052;-53
2022/03/05 04:06:21;;;;;;;14.15;9.43;;;1.60;99.90;;;;;;5000922;28;20541;-53
2022/03/05 04:09:04;;;;;;;13.40;9.27;;;1.60;99.90;;;;;;5026076;28;20171;-54
2022/03/05 04:11:48;;;;;;;13.73;9.25;;;1.70;99.90;;;;;;5032256;28;20036;-53
2022/03/05 04:14:33;;;;;;;13.82;9.10;;;1.70;99.90;;;;;;5018688;28;20029;-53
2022/03/05 04:17:17;;;;;;;15.00;8.75;;;1.70;99.90;;;;;;5029885;28;20076;-52
2022/03/05 04:20:02;;;;;;;11.20;8.13;;;1.70;99.90;;;;;;5033455;28;20445;-55
2022/03/05 04:22:46;;;;;;;13.10;8.57;;;1.70;99.90;;;;;;5013775;28;20092;-52
2022/03/05 04:25:30;;;;;;;12.32;8.57;;;1.70;99.90;;;;;;5015107;28;20076;-55
2022/03/05 04:28:15;;;;;;;12.57;8.18;;;1.70;99.90;;;;;;5013644;28;20041;-51
2022/03/05 04:30:59;;;;;;;13.43;8.65;;;1.70;99.90;;;;;;5032411;28;20032;-56
2022/03/05 04:33:43;;;;;;;11.18;9.10;;;1.70;99.90;;;;;;5032188;28;20095;-55
2022/03/05 04:36:27;;;;;;;12.18;8.73;;;1.70;99.90;;;;;;5024918;28;20036;-55
2022/03/05 04:39:12;;;;;;;14.27;9.35;;;1.70;99.90;;;;;;5013079;28;20049;-54
2022/03/05 04:41:56;;;;;;;17.23;9.13;;;1.70;99.90;;;;;;5016867;28;20099;-55
2022/03/05 04:44:41;;;;;;;13.32;8.20;;;1.70;99.90;;;;;;5030728;28;20047;-54
2022/03/05 04:47:25;;;;;;;14.60;9.02;;;1.60;99.90;;;;;;5031966;28;20524;-55
2022/03/05 04:50:10;;;;;;;11.60;8.98;;;1.60;99.90;;;;;;5031697;28;20136;-56
2022/03/05 04:52:54;;;;;;;14.77;10.02;;;1.60;99.90;;;;;;5031462;28;20041;-52
2022/03/05 04:55:38;;;;;;;13.95;8.50;;;1.70;99.90;;;;;;5033177;28;20041;-57
2022/03/05 04:58:22;;;;;;;12.65;8.23;;;1.60;99.90;;;;;;5030299;28;20091;-54
2022/03/05 05:01:06;;;;;;;12.55;8.63;;;1.70;99.90;;;;;;5012839;28;20080;-53
2022/03/05 05:03:50;;;;;;;11.70;8.83;;;1.70;99.90;;;;;;5011720;28;20045;-50
2022/03/05 05:06:34;;;;;;;11.23;8.82;;;1.60;99.90;;;;;;5023840;28;20064;-53
2022/03/05 05:09:18;;;;;;;12.50;8.50;;;1.60;99.90;;;;;;5032612;28;20082;-53
2022/03/05 05:12:03;;;;;;;17.40;8.68;;;1.70;99.90;;;;;;5017195;28;20037;-54
2022/03/05 05:14:47;;;;;;;11.68;8.20;;;1.70;99.90;;;;;;5014336;28;20041;-53
2022/03/05 05:17:38;;;;;;;10.07;7.93;;;1.70;99.90;;;;;;5021497;28;20432;-53
2022/03/05 05:20:22;;;;;;;18.67;9.07;;;1.80;99.90;;;;;;5031788;28;20091;-52
2022/03/05 05:23:06;;;;;;;13.13;8.27;;;1.80;99.90;;;;;;5032351;28;20099;-52
2022/03/05 05:25:51;;;;;;;13.73;8.90;;;1.80;99.90;;;;;;5016037;28;20068;-55
2022/03/05 05:28:35;;;;;;;10.85;8.43;;;1.80;99.90;;;;;;5012950;28;20049;-52
2022/03/05 05:31:19;;;;;;;12.65;8.60;;;1.80;99.90;;;;;;5011836;28;20045;-53
2022/03/05 05:34:03;;;;;;;14.10;8.57;;;1.80;99.90;;;;;;5012804;28;20045;-50
2022/03/05 05:36:47;;;;;;;13.20;8.32;;;1.80;99.90;;;;;;5032388;28;20036;-55
2022/03/05 05:39:31;;;;;;;12.90;8.90;;;1.80;99.90;;;;;;5028346;28;20037;-50
2022/03/05 05:42:15;;;;;;;9.02;7.68;;;1.80;99.90;;;;;;5026765;28;20035;-51
2022/03/05 05:44:59;;;;;;;11.43;7.72;;;1.80;99.90;;;;;;5030779;28;20083;-53
2022/03/05 05:47:43;;;;;;;12.98;7.53;;;1.70;99.90;;;;;;5030470;28;20044;-56
2022/03/05 05:50:27;;;;;;;9.60;7.57;;;1.70;99.90;;;;;;5021737;28;20061;-51
2022/03/05 05:53:11;;;;;;;10.75;7.72;;;1.70;99.90;;;;;;5018733;28;20091;-50
2022/03/05 05:55:55;;;;;;;13.15;8.63;;;1.70;99.90;;;;;;5023452;28;20521;-51
2022/03/05 05:58:40;;;;;;;11.80;8.20;;;1.70;99.90;;;;;;5012583;28;20129;-49
2022/03/05 06:01:24;;;;;;;9.47;7.50;;;1.70;99.90;;;;;;5024328;28;20047;-53
2022/03/05 06:04:08;;;;;;;17.30;7.68;;;1.60;99.90;;;;;;5032945;28;20040;-53
2022/03/05 06:06:53;;;;;;;11.03;7.60;;;1.60;99.90;;;;;;5013626;28;20241;-50
2022/03/05 06:09:37;;;;;;;9.63;8.00;;;1.60;99.90;;;;;;5015330;28;20362;-54
2022/03/05 06:12:21;;;;;;;12.43;8.07;;;1.40;99.90;;;;;;5031756;28;20110;-54
2022/03/05 06:15:08;;;;;;;11.05;7.63;;;1.40;99.90;;;;;;5024002;28;20086;-52
2022/03/05 06:17:57;;;;;;;7.82;6.85;;;1.50;99.90;;;;;;5034889;28;20098;-49
2022/03/05 06:20:41;;;;;;;13.85;7.90;;;1.50;99.90;;;;;;5025139;28;20079;-48
2022/03/05 06:23:25;;;;;;;12.93;7.95;;;1.50;99.90;;;;;;5015402;28;20045;-51
2022/03/05 06:26:09;;;;;;;10.88;7.50;;;1.60;99.90;;;;;;5029194;28;20160;-50
2022/03/05 06:28:54;;;;;;;11.52;7.60;;;1.50;99.90;;;;;;5034237;28;20040;-51
2022/03/05 06:31:38;;;;;;;13.35;7.78;;;1.50;99.90;;;;;;5033811;28;20056;-48
2022/03/05 06:34:22;;;;;;;16.88;8.55;;;1.60;99.90;;;;;;5035670;28;20087;-48
2022/03/05 06:37:06;;;;;;;11.25;7.63;;;1.60;99.90;;;;;;5035925;28;20109;-49
2022/03/05 06:39:51;;;;;;;15.50;7.40;;;1.60;99.90;;;;;;5026454;28;20104;-50
2022/03/05 06:42:35;;;;;;;10.93;6.88;;;1.70;99.90;;;;;;5032118;28;20088;-51
2022/03/05 06:45:19;;;;;;;10.82;7.38;;;1.80;99.90;;;;;;5034332;28;20048;-49
2022/03/05 06:48:04;;;;;;;12.18;8.50;;;1.90;99.90;;;;;;5027238;28;20033;-50
2022/03/05 06:50:49;;;;;;;11.18;7.60;;;1.90;99.90;;;;;;5015792;28;20045;-51
2022/03/05 06:53:33;;;;;;;9.90;7.47;;;2.00;99.90;;;;;;5015457;28;20056;-49
2022/03/05 06:56:17;;;;;;;18.40;8.63;;;2.00;99.90;;;;;;5015624;28;20076;-52
2022/03/05 06:59:01;;;;;;;10.53;7.33;;;2.00;99.90;;;;;;5027686;28;20409;-48
2022/03/05 07:01:45;;;;;;;10.25;7.60;;;2.10;99.90;;;;;;5034493;28;20088;-50
2022/03/05 07:04:29;;;;;;;16.23;7.93;;;2.10;99.90;;;;;;5034131;28;20107;-51
2022/03/05 07:07:13;;;;;;;13.45;7.63;;;2.20;99.90;;;;;;5034547;28;20524;-53
2022/03/05 07:09:57;;;;;;;12.93;7.68;;;2.10;99.90;;;;;;5034520;28;20033;-50
2022/03/05 07:12:41;;;;;;;9.65;7.13;;;2.10;99.90;;;;;;5023421;28;20103;-50
2022/03/05 07:15:26;;;;;;;10.57;7.40;;;2.20;99.90;;;;;;5014851;28;20045;-54
2022/03/05 07:18:10;;;;;;;11.18;7.32;;;2.20;99.90;;;;;;5028213;28;20052;-53
2022/03/05 07:20:57;;;;;;;10.10;7.20;;;2.30;99.90;;;;;;5034590;28;20149;-51
2022/03/05 07:23:41;;;;;;;12.77;7.82;;;2.50;99.90;;;;;;5015775;28;20037;-53
2022/03/05 07:26:25;;;;;;;15.85;8.50;;;2.80;99.90;;;;;;5014519;28;20033;-58
2022/03/05 07:29:10;;;;;;;25.30;9.65;;;3.10;99.90;;;;;;5018493;28;20500;-53
2022/03/05 07:31:54;;;;;;;23.70;9.98;;;3.40;99.90;;;;;;5032959;28;20045;-57
2022/03/05 07:34:38;;;;;;;9.82;7.03;;;3.40;99.90;;;;;;5032944;28;20476;-55
2022/03/05 07:37:23;;;;;;;10.45;6.95;;;3.30;99.90;;;;;;5032267;28;20032;-53
2022/03/05 07:40:08;;;;;;;10.25;7.65;;;3.10;99.90;;;;;;5015136;28;20080;-54
2022/03/05 07:42:52;;;;;;;8.50;6.55;;;2.90;99.90;;;;;;5028280;28;20113;-54
2022/03/05 07:45:36;;;;;;;9.52;7.28;;;2.90;99.90;;;;;;5017271;28;20401;-51
2022/03/05 07:48:21;;;;;;;10.80;7.72;;;2.70;99.90;;;;;;5025966;28;20033;-49
2022/03/05 07:51:05;;;;;;;10.35;8.20;;;2.70;99.90;;;;;;5032799;28;20113;-51
2022/03/05 07:53:49;;;;;;;12.13;7.40;;;2.70;99.90;;;;;;5022601;28;20048;-51
2022/03/05 07:56:33;;;;;;;9.32;6.85;;;2.80;99.90;;;;;;5032961;28;20040;-53
2022/03/05 07:59:17;;;;;;;11.75;7.30;;;3.00;99.90;;;;;;5033738;28;20035;-47
2022/03/05 08:02:01;;;;;;;15.00;7.25;;;3.00;99.90;;;;;;5032155;28;20095;-52
2022/03/05 08:04:47;;;;;;;15.73;7.40;;;3.10;99.90;;;;;;5030930;28;20036;-54
2022/03/05 08:07:31;;;;;;;9.93;7.03;;;3.20;99.90;;;;;;5029524;28;20511;-48
2022/03/05 08:10:16;;;;;;;9.55;7.00;;;3.30;99.90;;;;;;5014638;28;20544;-52
2022/03/05 08:13:00;;;;;;;10.82;7.43;;;3.40;99.90;;;;;;5013624;28;20497;-49
2022/03/05 08:15:44;;;;;;;19.38;13.75;;;3.50;99.90;;;;;;5014078;28;20033;-52
2022/03/05 08:18:28;;;;;;;11.13;7.75;;;3.50;99.90;;;;;;5030133;28;20103;-52
2022/03/05 08:21:13;;;;;;;14.95;8.93;;;3.50;99.90;;;;;;5012939;28;20061;-54
2022/03/05 08:23:57;;;;;;;13.30;9.15;;;3.40;99.90;;;;;;5013900;28;20040;-52
2022/03/05 08:26:42;;;;;;;15.88;7.45;;;3.40;99.90;;;;;;5014030;28;20513;-52
2022/03/05 08:29:26;;;;;;;;;;;3.30;99.90;;;;;;5022388;28;20554;-50
2022/03/05 08:32:11;;;;;;;13.73;8.07;;;3.30;99.90;;;;;;5027838;28;19960;-50
2022/03/05 08:34:55;;;;;;;10.57;7.90;;;3.40;99.90;;;;;;5033593;28;20040;-51
2022/03/05 08:37:40;;;;;;;11.60;8.10;;;3.50;99.90;;;;;;5031802;28;20180;-51
2022/03/05 08:40:25;;;;;;;15.02;8.68;;;3.60;99.90;;;;;;5033079;28;20083;-49
2022/03/05 08:43:09;;;;;;;17.75;8.57;;;3.70;99.90;;;;;;5012519;28;20037;-48
2022/03/05 08:45:53;;;;;;;12.40;8.35;;;3.90;99.90;;;;;;5023770;28;20056;-49
2022/03/05 08:48:37;;;;;;;10.88;7.70;;;4.10;99.90;;;;;;5033153;28;20060;-50
2022/03/05 08:51:21;;;;;;;14.02;8.23;;;4.10;99.90;;;;;;5032947;28;20133;-50
2022/03/05 08:54:05;;;;;;;15.25;7.68;;;4.20;99.90;;;;;;5031847;28;20429;-50
2022/03/05 08:56:49;;;;;;;12.02;7.28;;;4.20;99.90;;;;;;5026931;28;20088;-49
2022/03/05 08:59:33;;;;;;;12.55;8.43;;;4.20;99.90;;;;;;5031247;28;20036;-50
2022/03/05 09:02:17;;;;;;;13.32;8.38;;;4.20;99.90;;;;;;5031017;28;20607;-54
2022/03/05 09:05:03;;;;;;;16.27;9.77;;;4.20;99.90;;;;;;5017816;28;20040;-50
2022/03/05 09:07:47;;;;;;;13.55;8.90;;;4.20;99.90;;;;;;5032308;28;20056;-49
2022/03/05 09:10:31;;;;;;;13.15;8.55;;;4.30;99.90;;;;;;5031661;28;20041;-55
2022/03/05 09:13:15;;;;;;;11.55;8.27;;;4.20;99.90;;;;;;5031962;28;20110;-50
2022/03/05 09:15:59;;;;;;;19.30;11.05;;;4.30;99.90;;;;;;5032572;28;20462;-48
2022/03/05 09:18:43;;;;;;;13.23;8.68;;;4.40;99.90;;;;;;5028966;28;20049;-54
2022/03/05 09:21:27;;;;;;;17.00;8.60;;;4.40;99.90;;;;;;5032333;28;20053;-52
2022/03/05 09:24:11;;;;;;;14.50;8.13;;;4.40;99.90;;;;;;5032607;28;20036;-52
2022/03/05 09:26:55;;;;;;;10.63;8.20;;;4.40;99.90;;;;;;5032765;28;20040;-50
2022/03/05 09:29:39;;;;;;;12.52;8.57;;;4.60;99.80;;;;;;5033184;28;20052;-54
2022/03/05 09:32:23;;;;;;;12.73;8.25;;;4.70;99.90;;;;;;5032112;28;20041;-53
2022/03/05 09:35:08;;;;;;;13.88;8.30;;;4.90;99.60;;;;;;5032878;28;20041;-50
2022/03/05 09:37:52;;;;;;;12.32;7.85;;;4.90;99.20;;;;;;5032363;28;20056;-50
2022/03/05 09:40:36;;;;;;;13.77;7.80;;;4.90;99.80;;;;;;5030723;28;20459;-48
2022/03/05 09:43:21;;;;;;;10.85;8.23;;;4.90;99.20;;;;;;5031924;28;20090;-50
2022/03/05 09:46:06;;;;;;;13.13;7.38;;;4.90;99.10;;;;;;5031055;28;20092;-54
2022/03/05 09:48:54;;;;;;;13.18;7.18;;;5.00;99.30;;;;;;5032086;28;20212;-53
2022/03/05 09:51:38;;;;;;;11.75;6.80;;;5.30;98.80;;;;;;5031305;28;20033;-50
2022/03/05 09:54:22;;;;;;;7.88;6.20;;;5.40;98.40;;;;;;5035871;28;20392;-51
2022/03/05 09:57:11;;;;;;;8.18;6.50;;;5.60;97.80;;;;;;5035250;28;20531;-53
2022/03/05 09:59:55;;;;;;;8.80;5.70;;;5.50;97.60;;;;;;5035182;28;20060;-54
2022/03/05 10:02:40;;;;;;;8.07;5.93;;;5.60;97.30;;;;;;5035733;28;20110;-52
2022/03/05 10:05:28;;;;;;;;;;;5.60;96.10;;;;;;5036435;28;20033;-52
2022/03/05 10:08:15;;;;;;;18.42;9.05;;;5.70;95.70;;;;;;5035776;28;20280;-52
2022/03/05 10:11:05;;;;;;;9.85;5.80;;;5.60;95.00;;;;;;5035603;28;20080;-50
2022/03/05 10:13:49;;;;;;;6.80;5.15;;;5.70;94.40;;;;;;5035872;28;20562;-54
2022/03/05 10:16:33;;;;;;;19.10;5.73;;;5.70;93.90;;;;;;5030594;28;20087;-55
2022/03/05 10:19:18;;;;;;;6.93;4.95;;;5.60;93.60;;;;;;5035444;28;20706;-53
2022/03/05 10:22:04;;;;;;;;;;;5.70;93.60;;;;;;5035182;28;20070;-52
2022/03/05 10:24:48;;;;;;;8.63;4.90;;;5.90;93.00;;;;;;5035373;28;20280;-47
2022/03/05 10:27:34;;;;;;;8.32;5.50;;;6.00;92.60;;;;;;5026775;28;20460;-50
2022/03/05 10:30:31;;;;;;;6.55;5.35;;;6.00;92.60;;;;;;5027964;28;20060;-51
2022/03/05 10:33:40;;;;;;;8.95;5.55;;;6.10;92.10;;;;;;5028903;28;20117;-53
2022/03/05 10:36:25;;;;;;;7.90;5.65;;;6.20;92.20;;;;;;5031220;28;20102;-51
2022/03/05 10:39:10;;;;;;;8.43;5.40;;;6.10;92.10;;;;;;5029002;28;20052;-51
2022/03/05 10:41:55;;;;;;;8.10;5.22;;;6.10;92.30;;;;;;5024674;28;20045;-55
2022/03/05 10:44:39;;;;;;;7.78;5.88;;;6.30;92.20;;;;;;5024759;28;20068;-53
2022/03/05 10:47:24;;;;;;;7.55;6.00;;;6.30;91.70;;;;;;5030069;28;20048;-49
2022/03/05 10:50:31;;;;;;;8.43;6.22;;;6.20;91.80;;;;;;5027703;28;20544;-59
2022/03/05 10:53:15;;;;;;;9.23;6.70;;;6.30;91.70;;;;;;5033202;28;20045;-51
2022/03/05 10:55:59;;;;;;;7.50;5.78;;;6.20;91.90;;;;;;5034021;28;20024;-51
2022/03/05 10:58:43;;;;;;;8.93;5.93;;;6.20;91.80;;;;;;5031722;28;20098;-51
2022/03/05 11:01:27;;;;;;;9.95;6.82;;;6.30;92.00;;;;;;5027253;28;20093;-51
2022/03/05 11:04:12;;;;;;;10.48;6.82;;;6.10;90.90;;;;;;5025432;28;20445;-50
2022/03/05 11:06:59;;;;;;;9.20;6.97;;;6.10;90.60;;;;;;5023385;28;20040;-49
2022/03/05 11:09:44;;;;;;;12.90;6.68;;;6.10;90.90;;;;;;5024312;28;20040;-52
2022/03/05 11:12:31;;;;;;;8.35;6.68;;;6.40;91.00;;;;;;5022099;28;20028;-51
2022/03/05 11:15:15;;;;;;;9.13;6.30;;;6.60;91.20;;;;;;5023217;28;20103;-54
2022/03/05 11:17:59;;;;;;;9.45;6.22;;;6.80;91.00;;;;;;5020559;28;20041;-51
2022/03/05 11:20:45;;;;;;;8.35;5.93;;;7.00;90.50;;;;;;5024183;28;20084;-51
2022/03/05 11:23:31;;;;;;;8.02;5.85;;;7.10;89.40;;;;;;5023896;28;20028;-50
2022/03/05 11:26:16;;;;;;;9.93;5.93;;;6.80;87.90;;;;;;5024666;28;20390;-52
2022/03/05 11:29:01;;;;;;;10.38;6.55;;;6.90;88.90;;;;;;5027398;28;20037;-49
2022/03/05 11:31:47;;;;;;;8.55;6.43;;;6.90;89.10;;;;;;5023190;28;20453;-49
2022/03/05 11:34:46;;;;;;;9.15;6.00;;;6.90;89.00;;;;;;5024264;28;20029;-54
2022/03/05 11:37:35;;;;;;;11.18;7.68;;;7.10;87.90;;;;;;5023792;28;20020;-49
2022/03/05 11:40:40;;;;;;;12.88;9.10;;;7.10;88.60;;;;;;5024881;28;20086;-47
2022/03/05 11:43:26;;;;;;;11.82;6.75;;;7.10;88.60;;;;;;5024629;28;20092;-49
2022/03/05 11:46:24;;;;;;;10.75;6.88;;;7.10;87.70;;;;;;5025263;28;20151;-52
2022/03/05 11:49:11;;;;;;;9.20;7.30;;;7.30;87.30;;;;;;5020926;28;20405;-48
2022/03/05 11:51:58;;;;;;;8.80;6.93;;;7.50;87.10;;;;;;5022943;28;20036;-50
2022/03/05 11:55:11;;;;;;;9.75;6.38;;;7.80;86.20;;;;;;5022389;28;20040;-55
2022/03/05 11:57:57;;;;;;;8.98;6.40;;;7.90;85.50;;;;;;5024868;28;20045;-48
2022/03/05 12:00:46;;;;;;;8.45;6.05;;;8.00;85.20;;;;;;5025047;28;20036;-49
2022/03/05 12:03:39;;;;;;;10.18;6.43;;;7.80;83.90;;;;;;5026970;28;20092;-52
2022/03/05 12:06:24;;;;;;;10.07;5.95;;;7.60;84.60;;;;;;5027076;28;20032;-46
2022/03/05 12:09:34;;;;;;;28.00;7.65;;;7.80;83.10;;;;;;5019221;28;20053;-48
2022/03/05 12:12:19;;;;;;;7.57;6.07;;;7.60;81.60;;;;;;5031117;28;20048;-48
2022/03/05 12:15:06;;;;;;;8.90;6.22;;;7.50;81.40;;;;;;5035082;28;20416;-53
2022/03/05 12:17:51;;;;;;;9.13;6.63;;;7.40;82.10;;;;;;5042345;28;20044;-50
2022/03/05 12:20:36;;;;;;;;;;;7.50;82.90;;;;;;5039916;28;20036;-48
2022/03/05 12:23:21;;;;;;;8.65;5.60;;;7.70;82.20;;;;;;5033076;28;19916;-49
2022/03/05 12:26:05;;;;;;;7.25;5.50;;;7.80;80.10;;;;;;5033727;28;20121;-47
2022/03/05 12:28:51;;;;;;;6.57;5.40;;;7.60;79.20;;;;;;5032978;28;20127;-51
2022/03/05 12:31:45;;;;;;;8.35;5.75;;;7.40;79.60;;;;;;5032076;28;20045;-51
2022/03/05 12:34:34;;;;;;;6.82;5.70;;;7.50;79.90;;;;;;5032803;28;20530;-52
2022/03/05 12:37:19;;;;;;;10.43;6.07;;;7.30;80.80;;;;;;5032785;28;20041;-48
2022/03/05 12:40:05;;;;;;;12.30;6.50;;;7.30;81.80;;;;;;5031732;28;20084;-50
2022/03/05 12:42:51;;;;;;;8.02;6.20;;;7.20;82.00;;;;;;5028853;28;20044;-48
2022/03/05 12:45:38;;;;;;;6.68;5.82;;;7.20;82.10;;;;;;5025763;28;20061;-49
2022/03/05 12:48:23;;;;;;;11.60;7.43;;;7.30;80.90;;;;;;5026447;28;20060;-54
2022/03/05 12:51:07;;;;;;;11.73;8.65;;;7.60;79.20;;;;;;5025173;28;20096;-54
2022/03/05 12:53:59;;;;;;;8.15;6.47;;;7.60;79.30;;;;;;5029083;28;20115;-51
2022/03/05 12:56:43;;;;;;;10.25;7.93;;;7.50;78.30;;;;;;5028201;28;20029;-52
2022/03/05 12:59:27;;;;;;;9.65;6.65;;;7.30;78.60;;;;;;5012958;28;20033;-52
2022/03/05 13:02:12;;;;;;;7.45;6.45;;;7.30;79.20;;;;;;5027778;28;20080;-49
2022/03/05 13:04:56;;;;;;;8.32;6.45;;;7.40;79.10;;;;;;5012191;28;20040;-48
2022/03/05 13:07:40;;;;;;;9.77;7.40;;;7.30;80.70;;;;;;5030757;28;20055;-51
2022/03/05 13:10:24;;;;;;;9.93;6.70;;;7.30;81.10;;;;;;5029396;28;20167;-49
2022/03/05 13:13:11;;;;;;;7.93;6.45;;;7.40;81.30;;;;;;5023161;28;20152;-51
2022/03/05 13:15:55;;;;;;;10.25;6.38;;;7.30;80.20;;;;;;5022833;28;20130;-54
2022/03/05 13:18:39;;;;;;;6.95;6.18;;;7.10;79.20;;;;;;5031201;28;20108;-54
2022/03/05 13:21:24;;;;;;;13.23;7.88;;;7.10;79.30;;;;;;5030292;28;20040;-52
2022/03/05 13:24:10;;;;;;;9.27;6.90;;;7.20;78.50;;;;;;5031067;28;20117;-53
2022/03/05 13:26:55;;;;;;;8.85;6.55;;;7.20;77.90;;;;;;5031304;28;20048;-50
2022/03/05 13:29:39;;;;;;;;;;;7.50;77.50;;;;;;5032572;28;20236;-51
2022/03/05 13:32:25;;;;;;;7.63;6.15;;;7.60;76.40;;;;;;5031534;28;19916;-51
2022/03/05 13:35:09;;;;;;;9.30;6.80;;;7.80;77.30;;;;;;5032574;28;20044;-51
2022/03/05 13:37:57;;;;;;;8.63;6.80;;;7.60;77.60;;;;;;5032962;28;20029;-51
2022/03/05 13:40:42;;;;;;;11.85;7.10;;;7.40;78.30;;;;;;5031641;28;20584;-54
2022/03/05 13:43:26;;;;;;;8.35;6.95;;;7.40;77.80;;;;;;5033172;28;20167;-54
2022/03/05 13:46:11;;;;;;;8.90;6.57;;;7.30;77.30;;;;;;5032866;28;20044;-49
2022/03/05 13:48:58;;;;;;;7.30;6.57;;;7.20;74.20;;;;;;5032331;28;20036;-55
2022/03/05 13:51:45;;;;;;;8.40;6.43;;;7.00;74.10;;;;;;5033224;28;20469;-52
2022/03/05 13:54:37;;;;;;;9.00;6.28;;;7.00;74.80;;;;;;5017267;28;20119;-48
2022/03/05 13:57:26;;;;;;;7.88;6.10;;;7.00;73.90;;;;;;5033452;28;20061;-53
2022/03/05 14:00:10;;;;;;;13.50;10.13;;;6.90;73.10;;;;;;5032234;28;20443;-54
2022/03/05 14:02:56;;;;;;;8.77;6.70;;;6.80;71.90;;;;;;5033556;28;20083;-53
2022/03/05 14:05:40;;;;;;;10.85;6.22;;;6.80;71.80;;;;;;5032198;28;20029;-53
2022/03/05 14:08:24;;;;;;;9.80;7.18;;;6.70;72.00;;;;;;5032022;28;20032;-49